Time;durP1;ratioP1;P1;durP2;ratioP2;P2;SDS_P1;SDS_P2;PMS_P1;PMS_P2;Temp;Humidity;BMP_temperature;BMP_pressure;BME280_temperature;BME280_humidity;BME280_pressure;Samples;Min_cycle;Max_cycle;Signal;HPM_P1;HPM_P2
2021/06/15 00:04:20;;;;;;;2.87;2.20;;;19.50;74.10;;;;;;10489092;28;20236;-26
2021/06/15 00:09:43;;;;;;;3.10;2.60;;;19.40;74.10;;;;;;10491920;28;20213;-28
2021/06/15 00:15:07;;;;;;;2.63;2.30;;;19.40;74.10;;;;;;10454612;28;20633;-26
2021/06/15 00:20:30;;;;;;;2.40;2.20;;;19.50;74.20;;;;;;10458568;28;20692;-25
2021/06/15 00:25:53;;;;;;;3.40;2.40;;;19.40;74.20;;;;;;10458300;28;20193;-26
2021/06/15 00:31:15;;;;;;;2.53;2.10;;;19.40;75.00;;;;;;10458739;28;20220;-26
2021/06/15 00:36:37;;;;;;;2.73;2.53;;;19.50;74.50;;;;;;10456742;28;20189;-26
2021/06/15 00:42:01;;;;;;;2.80;2.60;;;19.50;74.40;;;;;;10474819;28;20213;-25
2021/06/15 00:47:23;;;;;;;4.67;3.00;;;19.50;74.50;;;;;;10469131;28;20197;-26
2021/06/15 00:52:46;;;;;;;3.20;2.90;;;19.50;74.60;;;;;;10490367;28;20228;-26
2021/06/15 00:58:09;;;;;;;3.60;2.60;;;19.50;74.50;;;;;;10466604;28;20204;-26
2021/06/15 01:03:32;;;;;;;3.37;2.80;;;19.50;74.60;;;;;;10456097;28;20205;-28
2021/06/15 01:08:57;;;;;;;3.40;2.40;;;19.40;74.50;;;;;;10453773;28;20201;-27
2021/06/15 01:14:36;;;;;;;4.40;3.03;;;19.40;74.70;;;;;;10454923;28;20286;-26
2021/06/15 01:20:18;;;;;;;4.23;2.90;;;19.40;74.50;;;;;;10468241;28;20191;-26
2021/06/15 01:26:00;;;;;;;4.67;2.70;;;19.40;74.50;;;;;;10427699;28;20192;-25
2021/06/15 01:31:32;;;;;;;3.27;2.87;;;19.40;74.50;;;;;;10454627;28;20729;-27
2021/06/15 01:37:00;;;;;;;2.93;2.57;;;19.40;74.60;;;;;;10455176;28;20193;-25
2021/06/15 01:42:28;;;;;;;4.37;2.90;;;19.40;74.60;;;;;;10454094;28;20216;-27
2021/06/15 01:47:59;;;;;;;3.50;2.70;;;19.40;74.60;;;;;;10453936;28;20198;-25
2021/06/15 01:53:23;;;;;;;2.90;2.60;;;19.40;74.60;;;;;;10453929;28;20259;-26
2021/06/15 01:58:46;;;;;;;2.90;2.60;;;19.50;74.70;;;;;;10453287;28;20205;-28
2021/06/15 02:04:11;;;;;;;3.93;2.57;;;19.40;74.60;;;;;;10453758;28;20220;-26
2021/06/15 02:09:38;;;;;;;3.07;2.87;;;19.40;74.60;;;;;;10484416;28;20212;-25
2021/06/15 02:15:01;;;;;;;2.83;2.53;;;19.40;74.60;;;;;;10531952;28;20224;-26
2021/06/15 02:20:29;;;;;;;3.03;2.80;;;19.40;74.70;;;;;;10503066;28;20194;-25
2021/06/15 02:25:55;;;;;;;3.00;2.60;;;19.40;74.70;;;;;;10512144;28;20195;-25
2021/06/15 02:31:20;;;;;;;2.60;2.40;;;19.40;74.70;;;;;;10493946;28;20221;-28
2021/06/15 02:36:44;;;;;;;3.63;2.83;;;19.40;74.80;;;;;;10493957;28;20197;-26
2021/06/15 02:42:10;;;;;;;2.93;2.23;;;19.40;74.70;;;;;;10492178;28;20220;-26
2021/06/15 02:47:34;;;;;;;3.70;2.40;;;19.40;74.70;;;;;;10497064;28;20199;-27
2021/06/15 02:53:05;;;;;;;2.77;2.43;;;19.40;74.70;;;;;;10526116;28;20226;-27
2021/06/15 02:58:27;;;;;;;4.33;3.10;;;19.40;74.70;;;;;;10535433;28;20215;-26
2021/06/15 03:03:50;;;;;;;4.37;2.67;;;19.40;74.80;;;;;;10507730;28;20217;-26
2021/06/15 03:09:14;;;;;;;4.20;2.73;;;19.40;74.80;;;;;;10492078;28;20575;-25
2021/06/15 03:14:38;;;;;;;3.10;2.40;;;19.40;74.80;;;;;;10498588;28;20687;-25
2021/06/15 03:20:05;;;;;;;3.17;2.43;;;19.40;74.70;;;;;;10498850;28;20195;-26
2021/06/15 03:25:35;;;;;;;2.77;2.03;;;19.40;74.80;;;;;;10533528;28;20187;-25
2021/06/15 03:30:59;;;;;;;3.03;2.40;;;19.40;74.80;;;;;;10533212;28;20775;-26
2021/06/15 03:36:23;;;;;;;2.60;2.30;;;19.40;74.80;;;;;;10525175;28;20208;-27
2021/06/15 03:41:47;;;;;;;3.40;2.33;;;19.40;74.80;;;;;;10492432;28;20250;-25
2021/06/15 03:47:11;;;;;;;3.53;2.53;;;19.40;74.80;;;;;;10492073;28;20201;-27
2021/06/15 03:52:37;;;;;;;4.33;2.70;;;19.40;74.80;;;;;;10496437;28;20223;-26
2021/06/15 03:58:01;;;;;;;2.47;2.27;;;19.40;74.80;;;;;;10500181;28;20671;-25
2021/06/15 04:03:25;;;;;;;2.40;2.13;;;19.40;74.80;;;;;;10514554;28;20220;-25
2021/06/15 04:08:48;;;;;;;3.47;2.33;;;19.40;74.80;;;;;;10505044;28;20196;-26
2021/06/15 04:14:12;;;;;;;3.47;2.40;;;19.40;74.80;;;;;;10471116;28;20711;-27
2021/06/15 04:19:38;;;;;;;3.37;2.07;;;19.40;74.80;;;;;;10497319;28;20579;-26
2021/06/15 04:25:05;;;;;;;2.57;2.37;;;19.40;74.80;;;;;;10493714;28;20695;-26
2021/06/15 04:30:30;;;;;;;4.80;2.53;;;19.40;74.80;;;;;;10498242;28;20266;-25
2021/06/15 04:35:55;;;;;;;3.13;2.33;;;19.40;74.80;;;;;;10495178;28;20679;-28
2021/06/15 04:41:20;;;;;;;3.70;2.37;;;19.40;74.80;;;;;;10496891;28;20679;-26
2021/06/15 04:46:46;;;;;;;3.03;2.33;;;19.40;74.80;;;;;;10498534;28;20195;-27
2021/06/15 04:52:09;;;;;;;3.50;2.37;;;19.40;74.70;;;;;;10496928;28;20227;-26
2021/06/15 04:57:37;;;;;;;2.47;2.27;;;19.40;74.70;;;;;;10495991;28;20197;-26
2021/06/15 05:03:02;;;;;;;2.83;2.37;;;19.40;74.80;;;;;;10495814;28;20216;-26
2021/06/15 05:08:28;;;;;;;4.27;2.20;;;19.40;74.80;;;;;;10495094;28;20208;-25
2021/06/15 05:13:53;;;;;;;2.90;2.00;;;19.40;74.70;;;;;;10466952;22;20744;-34
2021/06/15 05:19:17;;;;;;;3.50;2.07;;;19.40;74.70;;;;;;10326561;28;20195;-32
2021/06/15 05:24:50;;;;;;;4.30;2.40;;;19.40;74.80;;;;;;10326932;28;20215;-34
2021/06/15 05:30:13;;;;;;;3.23;2.30;;;19.40;74.60;;;;;;10326930;28;20348;-33
2021/06/15 05:35:36;;;;;;;3.70;2.50;;;19.40;74.70;;;;;;10326318;28;20242;-28
2021/06/15 05:40:59;;;;;;;4.93;2.30;;;19.40;74.70;;;;;;10326930;28;20198;-29
2021/06/15 05:46:21;;;;;;;2.40;2.20;;;19.40;74.70;;;;;;10327074;28;20732;-28
2021/06/15 05:51:45;;;;;;;3.10;2.10;;;19.40;74.70;;;;;;10326227;28;20570;-31
2021/06/15 05:57:08;;;;;;;10.63;3.07;;;19.40;74.70;;;;;;10325996;28;20345;-33
2021/06/15 06:02:30;;;;;;;12.23;3.57;;;19.30;71.90;;;;;;10329755;28;20212;-30
2021/06/15 06:08:07;;;;;;;8.43;2.97;;;19.00;72.00;;;;;;10400716;28;20198;-28
2021/06/15 06:13:30;;;;;;;8.67;3.10;;;18.80;73.40;;;;;;10371044;28;20243;-30
2021/06/15 06:18:52;;;;;;;11.50;3.33;;;18.60;73.50;;;;;;10534191;28;20201;-30
2021/06/15 06:24:17;;;;;;;15.67;3.87;;;18.50;74.40;;;;;;10528299;28;20228;-28
2021/06/15 06:29:39;;;;;;;10.97;3.20;;;18.60;74.00;;;;;;10534618;28;20569;-32
2021/06/15 06:35:03;;;;;;;8.43;3.00;;;18.50;74.30;;;;;;10531811;28;20214;-35
2021/06/15 06:40:27;;;;;;;8.57;2.80;;;18.60;73.50;;;;;;10528820;28;20618;-33
2021/06/15 06:45:49;;;;;;;9.07;2.13;;;18.60;73.50;;;;;;10530655;28;20694;-34
2021/06/15 06:51:12;;;;;;;6.63;2.07;;;18.80;73.20;;;;;;10528209;28;20591;-28
2021/06/15 06:56:35;;;;;;;7.47;2.20;;;19.00;72.90;;;;;;10534200;28;20230;-27
2021/06/15 07:01:57;;;;;;;8.57;2.17;;;19.20;72.70;;;;;;10529958;28;20196;-28
2021/06/15 07:07:20;;;;;;;8.13;2.03;;;19.30;72.50;;;;;;10533495;28;20206;-30
2021/06/15 07:12:43;;;;;;;7.63;2.17;;;19.30;72.20;;;;;;10531181;28;20874;-28
2021/06/15 07:18:05;;;;;;;6.03;1.80;;;19.50;71.90;;;;;;10534034;28;20196;-29
2021/06/15 07:23:27;;;;;;;7.13;1.63;;;19.60;71.90;;;;;;10533692;28;20219;-25
2021/06/15 07:28:51;;;;;;;6.30;1.67;;;19.60;71.80;;;;;;10538173;28;20309;-29
2021/06/15 07:34:14;;;;;;;3.63;1.50;;;19.70;71.60;;;;;;10525188;28;20231;-30
2021/06/15 07:39:36;;;;;;;5.40;1.60;;;19.80;71.50;;;;;;10540765;28;20215;-27
2021/06/15 07:45:00;;;;;;;5.77;1.70;;;19.80;71.20;;;;;;10540497;28;20220;-27
2021/06/15 07:50:22;;;;;;;5.00;1.33;;;19.90;71.10;;;;;;10540313;28;20211;-29
2021/06/15 07:55:44;;;;;;;4.83;1.50;;;19.90;71.10;;;;;;10542376;28;20915;-28
2021/06/15 08:01:08;;;;;;;5.27;1.30;;;20.00;70.90;;;;;;10540551;28;20243;-27
2021/06/15 08:06:30;;;;;;;8.07;1.53;;;20.10;70.70;;;;;;10540911;28;20594;-30
2021/06/15 08:11:52;;;;;;;3.77;1.27;;;20.10;70.60;;;;;;10536682;28;20220;-29
2021/06/15 08:17:16;;;;;;;6.93;1.93;;;20.10;70.40;;;;;;10539284;28;20214;-28
2021/06/15 08:22:38;;;;;;;5.33;1.43;;;20.10;70.30;;;;;;10538217;28;20593;-29
2021/06/15 08:28:00;;;;;;;4.27;1.43;;;20.00;70.70;;;;;;10539708;28;20203;-33
2021/06/15 08:33:24;;;;;;;5.60;1.50;;;20.00;71.20;;;;;;10540738;28;20714;-30
2021/06/15 08:38:46;;;;;;;3.87;1.10;;;20.00;71.30;;;;;;10539528;28;20202;-28
2021/06/15 08:44:09;;;;;;;4.70;1.53;;;20.00;71.30;;;;;;10540230;28;20219;-28
2021/06/15 08:49:32;;;;;;;5.33;1.27;;;19.90;71.50;;;;;;10538775;28;20203;-28
2021/06/15 08:54:55;;;;;;;2.83;1.10;;;19.90;71.40;;;;;;10536694;28;20232;-29
2021/06/15 09:00:18;;;;;;;2.87;1.33;;;19.90;70.80;;;;;;10536110;28;20246;-27
2021/06/15 09:05:42;;;;;;;4.87;1.37;;;19.90;71.10;;;;;;10538646;28;20698;-29
2021/06/15 09:11:06;;;;;;;7.37;1.57;;;19.90;70.90;;;;;;10538151;28;20219;-29
2021/06/15 09:16:33;;;;;;;4.10;1.70;;;19.90;70.40;;;;;;10537616;28;20580;-28
2021/06/15 09:21:57;;;;;;;3.53;1.00;;;19.90;70.40;;;;;;10534238;28;20293;-27
2021/06/15 09:27:21;;;;;;;3.50;1.20;;;19.90;70.60;;;;;;10536729;28;20198;-29
2021/06/15 09:32:45;;;;;;;4.80;1.27;;;19.90;70.50;;;;;;10536449;28;20227;-29
2021/06/15 09:38:08;;;;;;;3.30;1.33;;;19.90;70.70;;;;;;10537776;28;20206;-30
2021/06/15 09:43:31;;;;;;;1.97;1.10;;;19.90;70.60;;;;;;10537572;28;20211;-27
2021/06/15 09:48:59;;;;;;;3.73;1.17;;;19.90;70.80;;;;;;10536314;28;20210;-36
2021/06/15 09:54:41;;;;;;;2.57;1.03;;;19.90;70.50;;;;;;10519456;28;20219;-33
2021/06/15 10:00:15;;;;;;;4.47;1.27;;;19.90;70.70;;;;;;10535843;28;20203;-28
2021/06/15 10:05:38;;;;;;;2.53;0.97;;;19.90;70.10;;;;;;10528543;28;20685;-29
2021/06/15 10:11:02;;;;;;;2.60;0.90;;;19.90;70.50;;;;;;10495726;28;20212;-28
2021/06/15 10:16:24;;;;;;;2.77;1.17;;;19.80;70.40;;;;;;10499449;28;20702;-27
2021/06/15 10:21:46;;;;;;;3.40;1.40;;;19.80;70.20;;;;;;10535557;28;20689;-26
2021/06/15 10:27:12;;;;;;;3.90;1.30;;;19.80;70.10;;;;;;10534937;28;20214;-27
2021/06/15 10:32:35;;;;;;;3.60;1.20;;;19.80;70.10;;;;;;10535833;28;20208;-27
2021/06/15 10:37:57;;;;;;;1.10;0.70;;;19.80;70.40;;;;;;10535254;28;20696;-28
2021/06/15 10:43:26;;;;;;;3.20;0.90;;;19.90;69.40;;;;;;10533601;28;20211;-31
2021/06/15 10:48:56;;;;;;;3.57;0.83;;;19.90;68.70;;;;;;10531314;28;20201;-30
2021/06/15 10:54:40;;;;;;;3.40;1.00;;;19.90;69.60;;;;;;10533094;28;20242;-27
2021/06/15 11:00:08;;;;;;;2.43;0.73;;;19.80;69.80;;;;;;10534295;28;20577;-27
2021/06/15 11:05:41;;;;;;;3.07;1.17;;;19.70;70.00;;;;;;10534695;28;20214;-27
2021/06/15 11:11:05;;;;;;;3.37;1.17;;;19.80;70.30;;;;;;10533496;28;20215;-29
2021/06/15 11:16:33;;;;;;;3.17;1.00;;;19.80;70.50;;;;;;10519071;22;20227;-27
2021/06/15 11:21:57;;;;;;;7.37;2.70;;;19.80;70.70;;;;;;10376195;28;20213;-26
2021/06/15 11:27:35;;;;;;;11.53;3.83;;;19.80;69.50;;;;;;10322688;28;20219;-26
2021/06/15 11:33:03;;;;;;;7.60;3.03;;;19.80;68.90;;;;;;10321942;28;20306;-26
2021/06/15 11:38:25;;;;;;;11.03;3.33;;;19.80;67.50;;;;;;10326034;28;20203;-26
2021/06/15 11:43:56;;;;;;;8.20;2.67;;;19.80;66.40;;;;;;10321605;28;20211;-25
2021/06/15 11:49:19;;;;;;;7.10;3.00;;;19.80;66.30;;;;;;10322455;28;20195;-25
2021/06/15 11:54:43;;;;;;;7.50;2.13;;;19.80;66.70;;;;;;10420693;28;20226;-27
2021/06/15 12:00:12;;;;;;;5.73;2.33;;;19.80;66.40;;;;;;10463084;28;20214;-29
2021/06/15 12:05:36;;;;;;;7.20;1.83;;;19.80;66.90;;;;;;10323387;28;20717;-27
2021/06/15 12:10:59;;;;;;;3.63;1.67;;;19.70;67.50;;;;;;10321227;28;20205;-27
2021/06/15 12:16:25;;;;;;;4.87;1.87;;;19.70;68.00;;;;;;10329490;28;20231;-26
2021/06/15 12:21:49;;;;;;;2.70;1.60;;;19.70;68.40;;;;;;10327170;28;20187;-26
2021/06/15 12:27:20;;;;;;;4.60;1.47;;;19.70;68.30;;;;;;10315117;28;20242;-27
2021/06/15 12:32:45;;;;;;;7.07;1.90;;;19.70;68.50;;;;;;10328103;28;20298;-26
2021/06/15 12:38:14;;;;;;;4.10;1.40;;;19.70;68.50;;;;;;10329052;28;20286;-28
2021/06/15 12:43:37;;;;;;;3.17;1.33;;;19.70;68.70;;;;;;10320654;28;20231;-26
2021/06/15 12:49:00;;;;;;;4.23;1.37;;;19.70;68.90;;;;;;10326418;28;20245;-26
2021/06/15 12:54:28;;;;;;;3.53;1.47;;;19.70;69.00;;;;;;10409148;28;20230;-27
2021/06/15 12:59:59;;;;;;;2.63;1.47;;;19.70;69.30;;;;;;10328165;28;20198;-25
2021/06/15 13:05:21;;;;;;;3.87;1.70;;;19.70;69.30;;;;;;10325939;28;20710;-25
2021/06/15 13:10:44;;;;;;;4.17;1.40;;;19.70;69.20;;;;;;10325459;28;20199;-26
2021/06/15 13:16:13;;;;;;;3.20;1.20;;;19.80;69.00;;;;;;10365623;28;20237;-26
2021/06/15 13:21:55;;;;;;;2.23;1.00;;;19.80;69.00;;;;;;10353653;28;20670;-27
2021/06/15 13:27:29;;;;;;;7.13;1.40;;;19.80;68.30;;;;;;10320919;28;20227;-27
2021/06/15 13:33:02;;;;;;;4.03;1.40;;;19.90;67.70;;;;;;10324611;28;20311;-25
2021/06/15 13:38:25;;;;;;;6.33;1.50;;;19.90;65.60;;;;;;10325745;28;20209;-27
2021/06/15 13:43:49;;;;;;;4.60;1.30;;;19.90;66.50;;;;;;10325265;28;20594;-27
2021/06/15 13:49:11;;;;;;;4.90;1.30;;;19.90;67.20;;;;;;10325570;28;20202;-26
2021/06/15 13:54:33;;;;;;;4.67;1.50;;;19.90;66.80;;;;;;10390845;28;20223;-26
2021/06/15 13:59:56;;;;;;;4.03;1.40;;;19.90;66.80;;;;;;10464231;28;20264;-26
2021/06/15 14:05:19;;;;;;;4.03;1.50;;;19.90;67.30;;;;;;10317080;28;20443;-27
2021/06/15 14:10:42;;;;;;;4.17;1.20;;;19.90;66.80;;;;;;10320043;28;20218;-27
2021/06/15 14:16:06;;;;;;;7.33;1.60;;;19.90;67.40;;;;;;10322674;28;20230;-27
2021/06/15 14:21:28;;;;;;;3.90;1.20;;;19.90;67.30;;;;;;10324664;28;20285;-29
2021/06/15 14:26:51;;;;;;;4.73;1.40;;;19.80;66.50;;;;;;10324515;28;20219;-27
2021/06/15 14:32:14;;;;;;;3.13;1.30;;;19.90;67.10;;;;;;10319100;28;20305;-27
2021/06/15 14:37:36;;;;;;;5.37;1.60;;;19.90;66.80;;;;;;10323814;28;20214;-26
2021/06/15 14:42:58;;;;;;;2.63;0.87;;;19.90;68.00;;;;;;10321258;28;20225;-26
2021/06/15 14:48:22;;;;;;;2.90;0.97;;;19.90;67.90;;;;;;10318513;28;20225;-26
2021/06/15 14:53:44;;;;;;;6.30;1.57;;;19.90;68.10;;;;;;10372305;28;20567;-27
2021/06/15 14:59:07;;;;;;;2.53;0.97;;;19.90;67.60;;;;;;10535363;28;20224;-27
2021/06/15 15:04:31;;;;;;;3.97;1.30;;;19.80;67.80;;;;;;10381721;28;20242;-28
2021/06/15 15:09:53;;;;;;;4.57;1.27;;;19.80;68.00;;;;;;10322850;28;20709;-27
2021/06/15 15:15:16;;;;;;;2.90;1.07;;;19.80;67.80;;;;;;10319633;28;20602;-27
2021/06/15 15:20:40;;;;;;;2.73;1.00;;;19.80;68.20;;;;;;10316317;28;20206;-27
2021/06/15 15:26:02;;;;;;;3.67;1.20;;;19.70;68.10;;;;;;10318415;28;20681;-28
2021/06/15 15:31:24;;;;;;;3.07;0.83;;;19.70;67.70;;;;;;10322671;28;20202;-28
2021/06/15 15:36:48;;;;;;;2.67;0.97;;;19.80;68.20;;;;;;10321744;28;20214;-26
2021/06/15 15:42:10;;;;;;;3.10;0.80;;;19.70;68.00;;;;;;10321775;28;20195;-27
2021/06/15 15:47:32;;;;;;;2.97;1.10;;;19.70;68.60;;;;;;10324076;28;20199;-27
2021/06/15 15:52:56;;;;;;;2.37;0.80;;;19.70;68.10;;;;;;10325173;28;20418;-27
2021/06/15 15:58:18;;;;;;;3.13;1.00;;;19.70;68.60;;;;;;10325126;28;20207;-27
2021/06/15 16:03:40;;;;;;;3.77;1.10;;;19.70;68.50;;;;;;10326649;28;20215;-27
2021/06/15 16:09:04;;;;;;;5.73;1.10;;;19.70;68.80;;;;;;10328342;28;20203;-26
2021/06/15 16:14:26;;;;;;;3.57;1.03;;;19.80;67.80;;;;;;10323927;28;20737;-26
2021/06/15 16:19:48;;;;;;;2.93;1.00;;;19.80;67.80;;;;;;10329227;28;20199;-27
2021/06/15 16:25:14;;;;;;;2.73;0.90;;;19.70;67.30;;;;;;10325647;28;20697;-27
2021/06/15 16:30:37;;;;;;;3.17;0.80;;;19.70;67.20;;;;;;10328446;28;20215;-27
2021/06/15 16:35:59;;;;;;;3.40;1.07;;;19.70;66.80;;;;;;10326483;28;20594;-26
2021/06/15 16:41:25;;;;;;;3.07;1.10;;;19.70;67.10;;;;;;10326166;28;20204;-26
2021/06/15 16:46:47;;;;;;;4.00;0.93;;;19.70;67.40;;;;;;10326972;28;20215;-27
2021/06/15 16:52:09;;;;;;;4.20;0.90;;;19.70;66.60;;;;;;10323525;28;20219;-28
2021/06/15 16:57:36;;;;;;;3.53;0.87;;;19.70;67.10;;;;;;10320225;28;20203;-27
2021/06/15 17:02:58;;;;;;;4.23;1.07;;;19.60;67.30;;;;;;10320035;28;20543;-28
2021/06/15 17:08:20;;;;;;;3.63;0.80;;;19.70;67.30;;;;;;10321090;28;20324;-28
2021/06/15 17:13:43;;;;;;;3.03;1.07;;;19.60;67.60;;;;;;10354096;22;20227;-29
2021/06/15 17:19:05;;;;;;;2.83;0.80;;;19.70;68.00;;;;;;10451694;28;20282;-26
2021/06/15 17:24:28;;;;;;;2.23;0.87;;;19.70;67.70;;;;;;10443804;28;20217;-26
2021/06/15 17:29:51;;;;;;;1.97;0.90;;;19.70;68.30;;;;;;10454242;28;20212;-26
2021/06/15 17:35:17;;;;;;;4.07;0.90;;;19.60;68.10;;;;;;10448644;28;20224;-28
2021/06/15 17:40:40;;;;;;;3.60;1.03;;;19.70;68.30;;;;;;10454557;28;20193;-26
2021/06/15 17:46:04;;;;;;;3.03;0.90;;;19.70;68.00;;;;;;10452868;28;20217;-28
2021/06/15 17:51:26;;;;;;;2.80;1.00;;;19.70;67.90;;;;;;10453886;28;20196;-26
2021/06/15 17:56:48;;;;;;;3.80;1.20;;;19.70;67.50;;;;;;10418961;28;20231;-26
2021/06/15 18:02:12;;;;;;;3.63;1.13;;;19.70;68.10;;;;;;10422213;28;20201;-26
2021/06/15 18:07:40;;;;;;;4.40;1.10;;;19.80;67.90;;;;;;10451657;28;20221;-26
2021/06/15 18:13:03;;;;;;;3.17;0.83;;;19.80;68.00;;;;;;10410658;28;20713;-25
2021/06/15 18:18:26;;;;;;;4.53;1.07;;;19.80;67.90;;;;;;10204405;28;20704;-26
2021/06/15 18:23:48;;;;;;;2.60;0.87;;;19.90;67.90;;;;;;10395641;28;20218;-27
2021/06/15 18:29:10;;;;;;;7.23;1.33;;;19.90;68.20;;;;;;10381528;28;20206;-27
2021/06/15 18:34:34;;;;;;;4.23;1.67;;;19.90;67.30;;;;;;10389140;28;20228;-29
2021/06/15 18:39:56;;;;;;;3.37;1.10;;;19.90;66.50;;;;;;10406327;28;20198;-26
2021/06/15 18:45:19;;;;;;;2.93;1.37;;;19.90;65.80;;;;;;10404997;28;20286;-28
2021/06/15 18:50:43;;;;;;;5.30;1.40;;;19.90;65.30;;;;;;10402565;28;20677;-27
2021/06/15 18:56:05;;;;;;;6.53;1.30;;;19.90;66.10;;;;;;10402202;28;20657;-25
2021/06/15 19:01:27;;;;;;;8.63;1.70;;;19.90;65.00;;;;;;10405015;28;20205;-26
2021/06/15 19:06:51;;;;;;;6.47;1.40;;;19.90;63.90;;;;;;10404826;28;20221;-27
2021/06/15 19:12:13;;;;;;;5.33;1.43;;;19.90;63.10;;;;;;10404978;28;20621;-26
2021/06/15 19:17:37;;;;;;;3.53;1.13;;;19.90;62.10;;;;;;10441599;28;20233;-27
2021/06/15 19:23:01;;;;;;;6.07;1.50;;;19.90;62.00;;;;;;10440146;28;20240;-27
2021/06/15 19:28:23;;;;;;;4.60;1.13;;;19.80;61.50;;;;;;10449455;28;20197;-28
2021/06/15 19:33:46;;;;;;;3.93;1.20;;;19.80;61.20;;;;;;10453817;28;20327;-26
2021/06/15 19:39:09;;;;;;;5.23;1.33;;;19.80;61.90;;;;;;10448694;28;20709;-28
2021/06/15 19:44:31;;;;;;;6.13;1.20;;;19.80;61.60;;;;;;10458251;28;20217;-26
2021/06/15 19:49:54;;;;;;;5.43;1.50;;;19.80;62.20;;;;;;10454474;28;20745;-26
2021/06/15 19:55:20;;;;;;;5.13;1.20;;;19.80;62.20;;;;;;10458304;28;20216;-26
2021/06/15 20:00:43;;;;;;;5.20;1.37;;;19.70;61.50;;;;;;10437672;28;20198;-25
2021/06/15 20:06:05;;;;;;;4.40;1.17;;;19.70;61.20;;;;;;10416599;28;20205;-25
2021/06/15 20:11:29;;;;;;;6.77;1.37;;;19.60;60.70;;;;;;10417101;28;20194;-29
2021/06/15 20:16:51;;;;;;;4.90;1.30;;;19.60;60.50;;;;;;10421785;28;20213;-26
2021/06/15 20:22:13;;;;;;;4.93;1.40;;;19.60;60.30;;;;;;10462057;28;20201;-26
2021/06/15 20:27:36;;;;;;;5.93;1.70;;;19.50;60.60;;;;;;10436344;28;20219;-26
2021/06/15 20:32:58;;;;;;;5.10;1.30;;;19.40;60.50;;;;;;10455686;28;20224;-26
2021/06/15 20:38:21;;;;;;;5.60;1.33;;;19.50;60.50;;;;;;10448517;28;20193;-24
2021/06/15 20:43:44;;;;;;;4.07;1.30;;;19.30;60.40;;;;;;10456855;28;20213;-26
2021/06/15 20:49:06;;;;;;;4.33;1.20;;;19.30;60.40;;;;;;10456383;28;20201;-25
2021/06/15 20:54:28;;;;;;;5.77;1.60;;;19.10;60.90;;;;;;10456376;28;20228;-27
2021/06/15 20:59:52;;;;;;;4.83;1.33;;;18.90;61.30;;;;;;10453936;28;20193;-28
2021/06/15 21:05:14;;;;;;;5.50;1.30;;;19.00;60.90;;;;;;10454477;28;20684;-25
2021/06/15 21:10:36;;;;;;;4.37;1.27;;;19.00;60.80;;;;;;10455509;28;20197;-26
2021/06/15 21:15:59;;;;;;;4.83;1.37;;;19.00;60.40;;;;;;10453112;28;20224;-25
2021/06/15 21:21:22;;;;;;;5.20;1.37;;;19.00;60.40;;;;;;10454473;28;20572;-25
2021/06/15 21:26:44;;;;;;;6.03;1.40;;;18.90;60.50;;;;;;10453175;28;20212;-26
2021/06/15 21:32:08;;;;;;;6.63;1.60;;;18.90;60.50;;;;;;10455623;28;20201;-25
2021/06/15 21:37:30;;;;;;;8.70;1.60;;;18.90;60.60;;;;;;10455828;28;20221;-23
2021/06/15 21:42:53;;;;;;;5.07;1.53;;;18.80;60.90;;;;;;10455108;28;20197;-25
2021/06/15 21:48:16;;;;;;;8.93;1.80;;;18.70;61.20;;;;;;10441209;28;20189;-25
2021/06/15 21:53:39;;;;;;;3.73;1.23;;;18.70;61.30;;;;;;10454961;28;20600;-26
2021/06/15 21:59:02;;;;;;;5.53;1.77;;;18.60;61.50;;;;;;10454663;28;20271;-26
2021/06/15 22:04:25;;;;;;;4.13;1.50;;;18.50;61.50;;;;;;10455876;28;20285;-25
2021/06/15 22:09:47;;;;;;;2.03;1.17;;;18.50;61.60;;;;;;10452970;28;20200;-26
2021/06/15 22:15:11;;;;;;;8.13;2.10;;;18.50;61.80;;;;;;10452701;28;20231;-27
2021/06/15 22:20:35;;;;;;;4.83;1.60;;;18.50;62.00;;;;;;10453940;28;20193;-25
2021/06/15 22:25:57;;;;;;;3.97;1.43;;;18.30;62.10;;;;;;10452974;28;20217;-26
2021/06/15 22:31:19;;;;;;;6.57;1.60;;;18.30;62.10;;;;;;10451930;28;20201;-22
2021/06/15 22:36:44;;;;;;;3.17;1.30;;;18.30;62.40;;;;;;10452020;28;20255;-26
2021/06/15 22:42:07;;;;;;;4.60;1.23;;;18.20;62.50;;;;;;10450791;28;20726;-26
2021/06/15 22:47:29;;;;;;;3.33;1.10;;;18.20;62.50;;;;;;10332205;28;20722;-26
2021/06/15 22:52:53;;;;;;;4.17;1.50;;;18.10;62.70;;;;;;10452723;28;20698;-25
2021/06/15 22:58:17;;;;;;;4.60;1.47;;;18.00;62.90;;;;;;10451951;28;20246;-25
2021/06/15 23:03:39;;;;;;;3.80;1.40;;;18.00;63.00;;;;;;10451939;28;20288;-25
2021/06/15 23:09:03;;;;;;;5.33;1.97;;;18.00;63.20;;;;;;10452043;28;20197;-26
2021/06/15 23:14:25;;;;;;;6.57;1.60;;;17.90;63.30;;;;;;10494438;22;20229;-27
2021/06/15 23:19:48;;;;;;;6.57;1.70;;;17.80;63.30;;;;;;10532441;28;20212;-26
2021/06/15 23:25:15;;;;;;;2.37;1.20;;;17.80;63.40;;;;;;10534563;28;20212;-26
2021/06/15 23:30:37;;;;;;;3.73;1.30;;;17.70;63.60;;;;;;10534227;28;20195;-26
2021/06/15 23:35:59;;;;;;;4.90;1.50;;;17.70;63.50;;;;;;10533245;28;20227;-27
2021/06/15 23:41:22;;;;;;;4.97;1.60;;;17.60;63.80;;;;;;10533675;28;20274;-30
2021/06/15 23:46:44;;;;;;;4.07;1.27;;;17.60;63.90;;;;;;10535492;28;20216;-26
2021/06/15 23:52:07;;;;;;;6.53;1.70;;;17.60;64.00;;;;;;10534354;28;20200;-26
2021/06/15 23:57:31;;;;;;;5.53;1.63;;;17.50;64.30;;;;;;10535015;28;20223;-26
